createdAt,value
2017-09-06T00:00:51.888Z,17.20
2017-09-06T00:03:19.936Z,17.10
2017-09-06T00:05:49.656Z,17.20
2017-09-06T00:08:17.688Z,17.20
2017-09-06T00:10:45.716Z,17.20
2017-09-06T00:13:13.732Z,17.30
2017-09-06T00:15:41.753Z,17.30
2017-09-06T00:18:10.435Z,17.30
2017-09-06T00:20:38.455Z,17.20
2017-09-06T00:23:06.483Z,17.30
2017-09-06T00:25:34.512Z,17.30
2017-09-06T00:28:02.540Z,17.30
2017-09-06T00:30:32.315Z,17.20
2017-09-06T00:33:05.119Z,17.20
2017-09-06T00:35:34.096Z,17.20
2017-09-06T00:38:04.004Z,17.20
2017-09-06T00:40:32.935Z,17.20
2017-09-06T00:43:00.963Z,17.20
2017-09-06T00:45:29.960Z,17.20
2017-09-06T00:47:57.996Z,17.20
2017-09-06T00:50:26.011Z,17.20
2017-09-06T00:52:54.031Z,17.30
2017-09-06T00:55:22.079Z,17.40
2017-09-06T00:57:50.100Z,17.40
2017-09-06T01:00:18.124Z,17.40
2017-09-06T01:02:47.072Z,17.50
2017-09-06T01:05:16.059Z,17.40
2017-09-06T01:07:44.087Z,17.40
2017-09-06T01:10:12.131Z,17.30
2017-09-06T01:12:40.915Z,17.40
2017-09-06T01:15:08.951Z,17.40
2017-09-06T01:17:36.987Z,17.40
2017-09-06T01:20:05.008Z,17.40
2017-09-06T01:22:33.727Z,17.50
2017-09-06T01:25:01.808Z,17.50
2017-09-06T01:27:29.827Z,17.50
2017-09-06T01:30:02.060Z,17.40
2017-09-06T01:32:30.066Z,17.40
2017-09-06T01:34:58.075Z,17.40
2017-09-06T01:37:26.187Z,17.30
2017-09-06T01:39:55.252Z,17.30
2017-09-06T01:42:23.332Z,17.30
2017-09-06T01:44:51.408Z,17.30
2017-09-06T01:47:20.388Z,17.20
2017-09-06T01:49:48.452Z,17.20
2017-09-06T01:52:16.552Z,17.20
2017-09-06T01:54:44.556Z,17.30
2017-09-06T01:57:13.335Z,17.20
2017-09-06T01:59:42.342Z,17.10
2017-09-06T02:02:11.135Z,17.20
2017-09-06T02:04:40.091Z,17.20
2017-09-06T02:07:09.095Z,17.20
2017-09-06T02:09:37.115Z,17.20
2017-09-06T02:12:05.139Z,17.10
2017-09-06T02:14:34.087Z,17.00
2017-09-06T02:17:02.105Z,16.90
2017-09-06T02:19:31.007Z,16.80
2017-09-06T02:21:59.807Z,16.70
2017-09-06T02:24:27.831Z,16.70
2017-09-06T02:26:55.855Z,16.70
2017-09-06T02:29:23.896Z,16.60
2017-09-06T02:31:52.683Z,16.50
2017-09-06T02:34:21.643Z,16.50
2017-09-06T02:36:49.682Z,16.50
2017-09-06T02:39:17.703Z,16.40
2017-09-06T02:41:45.723Z,16.40
2017-09-06T02:44:13.772Z,16.30
2017-09-06T02:46:41.798Z,16.30
2017-09-06T02:49:09.819Z,16.30
2017-09-06T02:51:37.847Z,16.30
2017-09-06T02:54:05.863Z,16.30
2017-09-06T02:56:33.882Z,16.30
2017-09-06T02:59:02.079Z,16.30
2017-09-06T03:01:32.064Z,16.30
2017-09-06T03:04:00.091Z,16.20
2017-09-06T03:06:30.886Z,16.20
2017-09-06T03:09:02.930Z,16.20
2017-09-06T03:11:30.970Z,16.20
2017-09-06T03:13:59.994Z,16.20
2017-09-06T03:16:28.019Z,16.20
2017-09-06T03:18:56.062Z,16.30
2017-09-06T03:21:24.091Z,16.30
2017-09-06T03:23:52.102Z,16.30
2017-09-06T03:26:21.918Z,16.30
2017-09-06T03:28:50.706Z,16.30
2017-09-06T03:31:19.666Z,16.30
2017-09-06T03:33:47.822Z,16.30
2017-09-06T03:36:15.850Z,16.30
2017-09-06T03:38:43.874Z,16.30
2017-09-06T03:41:12.875Z,16.30
2017-09-06T03:43:40.890Z,16.20
2017-09-06T03:46:08.910Z,16.20
2017-09-06T03:48:36.959Z,16.30
2017-09-06T03:51:06.490Z,16.30
2017-09-06T03:53:35.486Z,16.30
2017-09-06T03:56:04.498Z,16.30
2017-09-06T03:58:34.286Z,16.20
2017-09-06T04:01:04.310Z,16.20
2017-09-06T04:03:32.334Z,16.10
2017-09-06T04:06:00.350Z,16.00
2017-09-06T04:08:29.298Z,16.00
2017-09-06T04:10:57.323Z,15.90
2017-09-06T04:13:25.346Z,15.90
2017-09-06T04:15:53.386Z,15.90
2017-09-06T04:18:22.350Z,16.00
2017-09-06T04:20:50.378Z,16.00
2017-09-06T04:23:18.430Z,16.00
2017-09-06T04:25:46.462Z,15.90
2017-09-06T04:28:15.442Z,15.90
2017-09-06T04:30:43.490Z,15.90
2017-09-06T04:33:11.522Z,15.90
2017-09-06T04:35:39.550Z,15.90
2017-09-06T04:38:07.602Z,15.90
2017-09-06T04:40:35.630Z,15.90
2017-09-06T04:43:03.662Z,15.90
2017-09-06T04:45:31.710Z,15.90
2017-09-06T04:48:00.656Z,16.00
2017-09-06T04:50:29.450Z,15.90
2017-09-06T04:52:58.437Z,15.90
2017-09-06T04:55:27.397Z,16.00
2017-09-06T04:57:57.469Z,16.00
2017-09-06T05:00:25.515Z,16.00
2017-09-06T05:02:53.554Z,16.00
2017-09-06T05:05:21.710Z,16.00
2017-09-06T05:07:49.746Z,16.00
2017-09-06T05:10:17.769Z,16.00
2017-09-06T05:12:49.329Z,16.00
2017-09-06T05:15:20.870Z,15.90
2017-09-06T05:17:48.905Z,15.90
2017-09-06T05:20:17.701Z,15.80
2017-09-06T05:22:52.854Z,15.80
2017-09-06T05:25:24.114Z,15.90
2017-09-06T05:27:52.158Z,15.90
2017-09-06T05:30:20.189Z,16.00
2017-09-06T05:32:54.309Z,15.90
2017-09-06T05:35:23.349Z,16.00
2017-09-06T05:37:52.345Z,16.10
2017-09-06T05:40:20.389Z,16.20
2017-09-06T05:42:49.402Z,16.30
2017-09-06T05:45:17.437Z,16.40
2017-09-06T05:47:46.491Z,16.50
2017-09-06T05:50:15.461Z,16.60
2017-09-06T05:52:45.485Z,16.70
2017-09-06T05:55:18.485Z,16.80
2017-09-06T05:57:47.461Z,16.80
2017-09-06T06:00:15.501Z,16.80
2017-09-06T06:02:43.545Z,16.70
2017-09-06T06:05:13.134Z,16.70
2017-09-06T06:07:41.169Z,16.60
2017-09-06T06:10:09.229Z,16.70
2017-09-06T06:12:39.265Z,16.60
2017-09-06T06:15:08.253Z,16.70
2017-09-06T06:17:36.309Z,16.70
2017-09-06T06:20:05.685Z,16.60
2017-09-06T06:22:34.708Z,16.60
2017-09-06T06:25:03.729Z,16.80
2017-09-06T06:27:35.773Z,16.80
2017-09-06T06:30:03.820Z,16.80
2017-09-06T06:32:32.757Z,16.70
2017-09-06T06:35:01.716Z,16.70
2017-09-06T06:37:29.748Z,16.70
2017-09-06T06:39:57.769Z,16.60
2017-09-06T06:42:25.797Z,16.70
2017-09-06T06:44:53.825Z,16.70
2017-09-06T06:47:21.845Z,16.70
2017-09-06T06:49:49.869Z,16.70
2017-09-06T06:52:18.853Z,16.70
2017-09-06T06:54:46.870Z,16.70
2017-09-06T06:57:14.881Z,16.70
2017-09-06T06:59:47.965Z,16.70
2017-09-06T07:02:17.984Z,16.70
2017-09-06T07:04:46.992Z,16.80
2017-09-06T07:07:15.005Z,16.90
2017-09-06T07:09:46.400Z,17.00
2017-09-06T07:12:15.321Z,17.10
2017-09-06T07:14:44.229Z,17.20
2017-09-06T07:17:12.277Z,17.50
2017-09-06T07:19:40.312Z,17.70
2017-09-06T07:22:08.332Z,18.00
2017-09-06T07:24:36.376Z,18.30
2017-09-06T07:27:04.388Z,18.20
2017-09-06T07:29:32.409Z,18.10
2017-09-06T07:32:05.996Z,18.10
2017-09-06T07:34:34.024Z,18.00
2017-09-06T07:37:02.044Z,18.20
2017-09-06T07:39:33.764Z,18.20
2017-09-06T07:42:02.776Z,18.20
2017-09-06T07:44:34.332Z,18.00
2017-09-06T07:47:02.364Z,18.00
2017-09-06T07:49:37.620Z,18.10
2017-09-06T07:52:05.637Z,18.20
2017-09-06T07:54:34.604Z,18.40
2017-09-06T07:57:02.629Z,18.70
2017-09-06T07:59:30.649Z,18.70
2017-09-06T08:01:58.673Z,18.80
2017-09-06T08:04:28.636Z,18.90
2017-09-06T08:07:02.304Z,19.00
2017-09-06T08:09:35.424Z,19.20
2017-09-06T08:12:07.516Z,19.10
2017-09-06T08:14:35.548Z,19.00
2017-09-06T08:17:03.580Z,18.90
2017-09-06T08:19:31.596Z,19.20
2017-09-06T08:22:01.620Z,19.80
2017-09-06T08:24:29.648Z,20.40
2017-09-06T08:26:57.660Z,20.60
2017-09-06T08:29:26.561Z,21.20
2017-09-06T08:31:54.608Z,21.60
2017-09-06T08:34:28.496Z,21.40
2017-09-06T08:36:56.480Z,20.90
2017-09-06T08:39:24.508Z,20.60
2017-09-06T08:41:52.532Z,20.20
2017-09-06T08:44:20.552Z,20.10
2017-09-06T08:46:48.568Z,20.30
2017-09-06T08:49:17.563Z,20.70
2017-09-06T08:51:45.583Z,21.40
2017-09-06T08:54:13.800Z,21.70
2017-09-06T08:56:41.827Z,22.10
2017-09-06T08:59:13.695Z,22.10
2017-09-06T09:01:42.631Z,22.00
2017-09-06T09:04:12.543Z,21.50
2017-09-06T09:06:41.452Z,21.00
2017-09-06T09:09:10.772Z,20.70
2017-09-06T09:11:38.785Z,20.50
2017-09-06T09:14:06.803Z,20.20
2017-09-06T09:16:35.759Z,19.90
2017-09-06T09:19:11.112Z,19.70
2017-09-06T09:21:39.359Z,19.70
2017-09-06T09:24:07.335Z,19.70
2017-09-06T09:26:36.331Z,19.70
2017-09-06T09:29:04.347Z,20.10
2017-09-06T09:31:33.279Z,20.40
2017-09-06T09:34:02.271Z,20.60
2017-09-06T09:36:30.295Z,21.20
2017-09-06T09:38:58.331Z,21.60
2017-09-06T09:41:26.342Z,21.60
2017-09-06T09:43:56.307Z,21.50
2017-09-06T09:46:24.321Z,21.10
2017-09-06T09:48:53.147Z,20.80
2017-09-06T09:51:21.174Z,21.50
2017-09-06T09:53:49.191Z,22.10
2017-09-06T09:56:17.215Z,22.00
2017-09-06T09:58:45.239Z,21.80
2017-09-06T10:01:13.255Z,21.90
2017-09-06T10:03:41.279Z,21.70
2017-09-06T10:06:09.302Z,21.10
2017-09-06T10:08:37.319Z,20.70
2017-09-06T10:11:07.327Z,20.40
2017-09-06T10:13:36.351Z,20.30
2017-09-06T10:16:06.343Z,20.10
2017-09-06T10:18:34.363Z,20.10
2017-09-06T10:21:02.390Z,20.10
2017-09-06T10:23:32.425Z,20.10
2017-09-06T10:26:01.398Z,20.20
2017-09-06T10:28:29.410Z,20.40
2017-09-06T10:30:57.427Z,20.30
2017-09-06T10:33:25.455Z,20.30
2017-09-06T10:35:53.475Z,20.20
2017-09-06T10:38:21.483Z,20.10
2017-09-06T10:40:51.242Z,20.20
2017-09-06T10:43:19.267Z,20.20
2017-09-06T10:45:50.251Z,20.10
2017-09-06T10:48:19.251Z,20.10
2017-09-06T10:50:47.274Z,20.30
2017-09-06T10:53:19.300Z,20.60
2017-09-06T10:55:47.314Z,20.90
2017-09-06T10:58:15.326Z,21.30
2017-09-06T11:00:50.022Z,21.60
2017-09-06T11:03:23.138Z,22.30
2017-09-06T11:05:52.575Z,22.40
2017-09-06T11:08:20.599Z,22.20
2017-09-06T11:10:53.218Z,22.10
2017-09-06T11:13:24.610Z,20.90
2017-09-06T11:15:53.654Z,20.90
2017-09-06T11:18:21.678Z,20.90
2017-09-06T11:20:49.962Z,21.00
2017-09-06T11:23:17.983Z,21.30
2017-09-06T11:25:47.951Z,21.50
2017-09-06T11:28:20.231Z,21.70
2017-09-06T11:30:52.091Z,21.50
2017-09-06T11:33:21.030Z,21.70
2017-09-06T11:35:49.942Z,21.80
2017-09-06T11:38:17.962Z,22.00
2017-09-06T11:40:48.686Z,21.80
2017-09-06T11:43:16.702Z,21.80
2017-09-06T11:45:47.591Z,21.70
2017-09-06T11:48:16.071Z,21.70
2017-09-06T11:50:47.298Z,21.80
2017-09-06T11:53:16.302Z,21.90
2017-09-06T11:55:45.280Z,22.00
2017-09-06T11:58:13.302Z,22.30
2017-09-06T12:00:41.330Z,22.60
2017-09-06T12:03:09.350Z,23.00
2017-09-06T12:05:38.290Z,23.30
2017-09-06T12:08:06.929Z,23.10
2017-09-06T12:10:34.942Z,22.50
2017-09-06T12:13:03.930Z,22.50
2017-09-06T12:15:31.966Z,22.80
2017-09-06T12:17:59.990Z,23.60
2017-09-06T12:20:29.982Z,24.30
2017-09-06T12:23:03.485Z,24.50
2017-09-06T12:25:31.501Z,24.00
2017-09-06T12:28:00.446Z,23.60
2017-09-06T12:30:29.382Z,23.30
2017-09-06T12:32:57.410Z,22.80
2017-09-06T12:35:26.406Z,22.20
2017-09-06T12:37:55.685Z,21.80
2017-09-06T12:40:23.658Z,21.70
2017-09-06T12:43:03.109Z,21.90
2017-09-06T12:45:31.126Z,23.00
2017-09-06T12:48:00.054Z,23.80
2017-09-06T12:50:29.098Z,24.20
2017-09-06T12:52:57.873Z,25.40
2017-09-06T12:55:25.897Z,25.30
2017-09-06T12:57:55.842Z,25.70
2017-09-06T13:00:23.850Z,25.30
2017-09-06T13:02:51.866Z,24.50
2017-09-06T13:05:19.890Z,24.10
2017-09-06T13:07:47.909Z,24.00
2017-09-06T13:10:15.933Z,23.80
2017-09-06T13:12:43.970Z,24.10
2017-09-06T13:15:12.849Z,24.40
2017-09-06T13:17:40.870Z,24.30
2017-09-06T13:20:08.898Z,24.20
2017-09-06T13:22:36.913Z,24.00
2017-09-06T13:25:04.930Z,24.20
2017-09-06T13:27:32.973Z,24.20
2017-09-06T13:30:00.987Z,24.40
2017-09-06T13:32:28.997Z,24.90
2017-09-06T13:34:58.945Z,24.40
2017-09-06T13:37:27.929Z,23.80
2017-09-06T13:39:55.950Z,23.40
2017-09-06T13:42:23.977Z,22.90
2017-09-06T13:44:53.985Z,23.00
2017-09-06T13:47:22.009Z,23.90
2017-09-06T13:49:50.053Z,24.80
2017-09-06T13:52:18.061Z,24.90
2017-09-06T13:54:48.013Z,24.50
2017-09-06T13:57:16.033Z,24.80
2017-09-06T13:59:44.045Z,25.10
2017-09-06T14:02:12.057Z,25.20
2017-09-06T14:04:41.025Z,25.20
2017-09-06T14:07:09.937Z,23.90
2017-09-06T14:09:38.897Z,22.70
2017-09-06T14:12:06.928Z,22.20
2017-09-06T14:14:36.889Z,21.70
2017-09-06T14:17:04.905Z,21.40
2017-09-06T14:19:33.705Z,21.30
2017-09-06T14:22:01.717Z,21.20
2017-09-06T14:24:29.740Z,21.00
2017-09-06T14:27:01.132Z,20.90
2017-09-06T14:29:29.144Z,20.90
2017-09-06T14:31:57.161Z,21.10
2017-09-06T14:34:25.200Z,22.40
2017-09-06T14:36:56.484Z,23.40
2017-09-06T14:39:25.497Z,24.20
2017-09-06T14:41:54.468Z,24.30
2017-09-06T14:44:23.868Z,23.70
2017-09-06T14:46:54.944Z,22.70
2017-09-06T14:49:24.936Z,23.40
2017-09-06T14:51:55.988Z,23.80
2017-09-06T14:54:24.020Z,23.40
2017-09-06T14:56:53.948Z,22.50
2017-09-06T14:59:21.973Z,21.70
2017-09-06T15:01:49.992Z,21.70
2017-09-06T15:04:18.008Z,22.50
2017-09-06T15:06:46.056Z,22.50
2017-09-06T15:09:15.024Z,23.10
2017-09-06T15:11:43.044Z,23.10
2017-09-06T15:14:11.084Z,23.20
2017-09-06T15:16:39.103Z,23.20
2017-09-06T15:19:07.124Z,22.30
2017-09-06T15:21:36.120Z,21.90
2017-09-06T15:24:04.908Z,21.90
2017-09-06T15:26:33.700Z,22.00
2017-09-06T15:29:03.524Z,22.60
2017-09-06T15:31:31.500Z,22.60
2017-09-06T15:34:01.463Z,22.90
2017-09-06T15:36:30.436Z,22.80
2017-09-06T15:38:59.452Z,22.90
2017-09-06T15:41:27.472Z,23.00
2017-09-06T15:43:55.504Z,23.10
2017-09-06T15:46:24.476Z,22.90
2017-09-06T15:48:57.785Z,22.40
2017-09-06T15:51:25.799Z,22.00
2017-09-06T15:53:54.731Z,21.00
2017-09-06T15:56:22.763Z,20.80
2017-09-06T15:58:50.775Z,21.40
2017-09-06T16:01:18.800Z,21.30
2017-09-06T16:03:47.740Z,21.10
2017-09-06T16:06:15.755Z,21.20
2017-09-06T16:08:43.767Z,21.90
2017-09-06T16:11:12.792Z,22.10
2017-09-06T16:13:41.751Z,22.00
2017-09-06T16:16:09.775Z,21.80
2017-09-06T16:18:37.839Z,21.30
2017-09-06T16:21:06.620Z,21.10
2017-09-06T16:23:35.408Z,20.70
2017-09-06T16:26:03.439Z,20.70
2017-09-06T16:28:31.460Z,20.20
2017-09-06T16:31:00.287Z,20.40
2017-09-06T16:33:30.254Z,20.50
2017-09-06T16:36:00.019Z,20.00
2017-09-06T16:38:29.013Z,19.90
2017-09-06T16:40:57.039Z,19.70
2017-09-06T16:43:25.059Z,19.50
2017-09-06T16:45:54.974Z,19.20
2017-09-06T16:48:23.019Z,19.10
2017-09-06T16:50:51.039Z,19.00
2017-09-06T16:53:19.051Z,18.90
2017-09-06T16:55:47.071Z,18.90
2017-09-06T16:58:16.859Z,18.70
2017-09-06T17:00:44.879Z,18.70
2017-09-06T17:03:13.311Z,18.60
2017-09-06T17:05:41.323Z,18.50
2017-09-06T17:08:09.344Z,18.50
2017-09-06T17:10:37.367Z,18.50
2017-09-06T17:13:05.382Z,18.40
2017-09-06T17:15:34.371Z,18.20
2017-09-06T17:18:05.735Z,18.00
2017-09-06T17:20:34.648Z,17.90
2017-09-06T17:23:03.611Z,17.80
2017-09-06T17:25:32.355Z,17.60
2017-09-06T17:28:02.302Z,17.50
2017-09-06T17:30:31.333Z,17.40
2017-09-06T17:33:02.051Z,17.30
2017-09-06T17:35:31.226Z,17.30
2017-09-06T17:37:59.208Z,17.30
2017-09-06T17:40:27.230Z,17.30
2017-09-06T17:42:55.251Z,17.20
2017-09-06T17:45:23.271Z,17.20
2017-09-06T17:47:51.303Z,17.10
2017-09-06T17:50:19.343Z,17.10
2017-09-06T17:52:47.367Z,17.00
2017-09-06T17:55:15.395Z,17.00
2017-09-06T17:57:43.419Z,17.00
2017-09-06T18:00:11.439Z,17.00
2017-09-06T18:02:41.454Z,16.90
2017-09-06T18:05:09.471Z,16.90
2017-09-06T18:07:37.510Z,16.80
2017-09-06T18:10:09.858Z,16.70
2017-09-06T18:12:38.842Z,16.70
2017-09-06T18:15:06.859Z,16.70
2017-09-06T18:17:34.887Z,16.70
2017-09-06T18:20:06.634Z,16.60
2017-09-06T18:22:34.654Z,16.50
2017-09-06T18:25:02.703Z,16.50
2017-09-06T18:27:30.710Z,16.40
2017-09-06T18:29:59.742Z,16.40
2017-09-06T18:32:27.771Z,16.40
2017-09-06T18:34:55.786Z,16.30
2017-09-06T18:37:24.782Z,16.30
2017-09-06T18:39:52.822Z,16.20
2017-09-06T18:42:21.839Z,16.20
2017-09-06T18:44:49.859Z,16.10
2017-09-06T18:47:18.047Z,16.10
2017-09-06T18:49:47.723Z,16.10
2017-09-06T18:52:17.508Z,16.00
2017-09-06T18:54:45.631Z,16.00
2017-09-06T18:57:14.564Z,16.00
2017-09-06T18:59:43.565Z,15.90
2017-09-06T19:02:11.590Z,15.90
2017-09-06T19:04:39.611Z,15.90
2017-09-06T19:07:07.630Z,15.80
2017-09-06T19:09:36.671Z,15.80
2017-09-06T19:12:06.598Z,15.80
2017-09-06T19:14:35.558Z,15.80
2017-09-06T19:17:05.078Z,15.70
2017-09-06T19:19:33.100Z,15.70
2017-09-06T19:22:04.487Z,15.70
2017-09-06T19:24:32.506Z,15.60
2017-09-06T19:27:00.535Z,15.60
2017-09-06T19:29:28.546Z,15.50
2017-09-06T19:31:57.366Z,15.50
2017-09-06T19:34:25.362Z,15.50
2017-09-06T19:36:53.378Z,15.50
2017-09-06T19:39:21.423Z,15.40
2017-09-06T19:41:55.262Z,15.40
2017-09-06T19:44:27.198Z,15.40
2017-09-06T19:46:55.234Z,15.40
2017-09-06T19:49:23.302Z,15.40
2017-09-06T19:51:53.326Z,15.40
2017-09-06T19:54:22.309Z,15.30
2017-09-06T19:56:50.334Z,15.30
2017-09-06T19:59:19.262Z,15.20
2017-09-06T20:01:47.290Z,15.20
2017-09-06T20:04:16.079Z,15.20
2017-09-06T20:06:44.114Z,15.10
2017-09-06T20:09:13.086Z,15.00
2017-09-06T20:11:41.114Z,14.90
2017-09-06T20:14:09.150Z,14.80
2017-09-06T20:16:38.050Z,14.70
2017-09-06T20:19:06.842Z,14.60
2017-09-06T20:21:35.634Z,14.50
2017-09-06T20:24:04.418Z,14.50
2017-09-06T20:26:33.329Z,14.40
2017-09-06T20:29:02.281Z,14.40
2017-09-06T20:31:30.314Z,14.40
2017-09-06T20:34:00.253Z,14.30
2017-09-06T20:36:33.155Z,14.30
2017-09-06T20:39:02.126Z,14.20
2017-09-06T20:41:30.149Z,14.10
2017-09-06T20:43:58.189Z,14.10
2017-09-06T20:46:26.214Z,14.00
2017-09-06T20:48:54.234Z,13.90
2017-09-06T20:51:24.029Z,13.80
2017-09-06T20:53:52.041Z,13.80
2017-09-06T20:56:20.981Z,13.70
2017-09-06T20:58:49.009Z,13.80
2017-09-06T21:01:17.025Z,13.80
2017-09-06T21:03:45.041Z,13.80
2017-09-06T21:06:15.025Z,13.80
2017-09-06T21:08:43.938Z,13.90
2017-09-06T21:11:11.957Z,13.90
2017-09-06T21:13:40.009Z,13.90
2017-09-06T21:16:09.025Z,13.90
2017-09-06T21:18:37.045Z,13.90
2017-09-06T21:21:05.096Z,13.90
2017-09-06T21:23:33.877Z,13.90
2017-09-06T21:26:01.897Z,13.90
2017-09-06T21:28:29.937Z,13.90
2017-09-06T21:30:57.961Z,13.90
2017-09-06T21:33:26.957Z,13.90
2017-09-06T21:35:55.953Z,13.90
2017-09-06T21:38:23.973Z,13.90
2017-09-06T21:40:52.001Z,14.00
2017-09-06T21:43:20.029Z,14.00
2017-09-06T21:45:48.072Z,14.00
2017-09-06T21:48:16.060Z,14.00
2017-09-06T21:50:45.122Z,14.00
2017-09-06T21:53:13.155Z,14.00
2017-09-06T21:55:41.165Z,14.00
2017-09-06T21:58:09.961Z,14.00
2017-09-06T22:00:38.901Z,13.90
2017-09-06T22:03:07.893Z,14.00
2017-09-06T22:05:35.924Z,13.90
2017-09-06T22:08:03.948Z,14.00
2017-09-06T22:10:31.972Z,13.90
2017-09-06T22:13:03.212Z,13.90
2017-09-06T22:15:31.232Z,13.90
2017-09-06T22:17:59.260Z,13.80
2017-09-06T22:20:27.312Z,13.70
2017-09-06T22:22:55.327Z,13.60
2017-09-06T22:25:23.351Z,13.60
2017-09-06T22:27:51.380Z,13.60
2017-09-06T22:30:19.548Z,13.50
2017-09-06T22:32:47.572Z,13.40
2017-09-06T22:35:16.536Z,13.30
2017-09-06T22:37:46.828Z,12.90
2017-09-06T22:40:17.088Z,12.90
2017-09-06T22:42:45.124Z,12.90
2017-09-06T22:45:13.548Z,12.80
2017-09-06T22:47:42.510Z,12.80
2017-09-06T22:50:10.528Z,12.70
2017-09-06T22:52:38.548Z,12.70
2017-09-06T22:55:06.588Z,12.70
2017-09-06T22:57:35.596Z,12.70
2017-09-06T23:00:03.627Z,12.60
2017-09-06T23:02:32.572Z,12.60
2017-09-06T23:05:00.584Z,12.60
2017-09-06T23:07:28.615Z,12.50
2017-09-06T23:09:57.612Z,12.30
2017-09-06T23:12:27.404Z,12.10
2017-09-06T23:14:55.435Z,12.10
2017-09-06T23:17:23.475Z,12.10
2017-09-06T23:19:51.504Z,12.10
2017-09-06T23:22:19.532Z,12.20
2017-09-06T23:24:47.584Z,12.10
2017-09-06T23:27:16.371Z,12.10
2017-09-06T23:29:45.168Z,12.10
2017-09-06T23:32:13.215Z,12.10
2017-09-06T23:34:42.007Z,12.10
2017-09-06T23:37:10.031Z,12.10
2017-09-06T23:39:40.071Z,12.20
2017-09-06T23:42:08.107Z,12.20
2017-09-06T23:44:36.131Z,12.10
2017-09-06T23:47:04.179Z,12.10
2017-09-06T23:49:32.191Z,12.20
2017-09-06T23:52:00.535Z,12.20
2017-09-06T23:54:28.579Z,12.20
2017-09-06T23:56:57.583Z,12.30
2017-09-06T23:59:26.575Z,12.20
